Time;durP1;ratioP1;P1;durP2;ratioP2;P2;SDS_P1;SDS_P2;PMS_P1;PMS_P2;Temp;Humidity;BMP_temperature;BMP_pressure;BME280_temperature;BME280_humidity;BME280_pressure;Samples;Min_cycle;Max_cycle;Signal;HPM_P1;HPM_P2
2023/10/12 00:02:04;;;;;;;3.50;2.40;;;23.00;90.30;;;;;;4978567;28;20246;-72
2023/10/12 00:04:43;;;;;;;4.28;2.20;;;22.90;90.30;;;;;;4977758;28;20267;-73
2023/10/12 00:07:15;;;;;;;3.83;2.22;;;22.90;90.30;;;;;;4970671;28;20196;-72
2023/10/12 00:09:48;;;;;;;4.07;2.20;;;22.80;90.30;;;;;;4977585;28;20207;-72
2023/10/12 00:12:24;;;;;;;3.97;2.30;;;22.80;90.30;;;;;;4977122;28;20172;-72
2023/10/12 00:15:02;;;;;;;3.28;2.40;;;22.80;90.30;;;;;;4972016;28;20176;-73
2023/10/12 00:17:33;;;;;;;5.30;2.70;;;22.80;90.30;;;;;;4977950;28;20182;-72
2023/10/12 00:20:01;;;;;;;3.83;1.88;;;22.80;90.20;;;;;;4977924;28;20208;-71
2023/10/12 00:22:28;;;;;;;4.85;2.10;;;22.70;90.20;;;;;;4977781;28;20220;-71
2023/10/12 00:24:54;;;;;;;4.90;2.35;;;22.70;90.30;;;;;;4995592;28;20176;-73
2023/10/12 00:27:20;;;;;;;3.50;2.10;;;22.70;90.30;;;;;;4982812;28;20278;-72
2023/10/12 00:29:48;;;;;;;3.03;2.30;;;22.70;90.20;;;;;;4970298;28;20187;-72
2023/10/12 00:32:18;;;;;;;4.18;2.42;;;22.70;90.20;;;;;;4977633;28;20235;-73
2023/10/12 00:34:52;;;;;;;6.30;2.72;;;22.60;90.50;;;;;;4962264;28;20209;-73
2023/10/12 00:37:21;;;;;;;4.93;2.50;;;22.60;90.20;;;;;;4957982;28;20199;-71
2023/10/12 00:39:56;;;;;;;4.43;2.10;;;22.60;90.20;;;;;;4971113;28;20211;-71
2023/10/12 00:42:25;;;;;;;3.67;2.20;;;22.60;90.20;;;;;;4972037;28;20251;-72
2023/10/12 00:44:54;;;;;;;5.80;2.55;;;22.50;90.20;;;;;;4999980;28;20176;-72
2023/10/12 00:47:32;;;;;;;4.93;2.38;;;22.50;90.20;;;;;;4974525;28;20262;-72
2023/10/12 00:49:58;;;;;;;5.43;2.33;;;22.50;90.20;;;;;;4973830;28;20191;-73
2023/10/12 00:52:26;;;;;;;4.82;2.55;;;22.50;90.20;;;;;;4987731;28;20180;-72
2023/10/12 00:55:13;;;;;;;4.47;2.55;;;22.50;90.20;;;;;;4967731;28;20220;-72
2023/10/12 00:57:42;;;;;;;3.78;2.50;;;22.50;90.20;;;;;;4976583;28;20172;-73
2023/10/12 01:00:15;;;;;;;3.33;2.20;;;22.50;90.20;;;;;;4974017;28;20176;-73
2023/10/12 01:02:42;;;;;;;3.72;2.33;;;22.50;90.20;;;;;;4976643;28;20183;-73
2023/10/12 01:05:11;;;;;;;4.47;2.20;;;22.50;90.20;;;;;;4976412;28;20223;-73
2023/10/12 01:07:42;;;;;;;4.00;2.40;;;22.40;90.20;;;;;;4976668;28;20207;-72
2023/10/12 01:10:10;;;;;;;4.32;2.30;;;22.50;90.30;;;;;;4967655;28;20177;-73
2023/10/12 01:12:38;;;;;;;5.72;3.00;;;22.40;90.20;;;;;;4957636;29;20174;-73
2023/10/12 01:15:11;;;;;;;5.43;3.40;;;22.40;90.30;;;;;;4976863;28;20210;-72
2023/10/12 01:17:41;;;;;;;5.22;2.75;;;22.40;90.20;;;;;;4977642;28;20239;-73
2023/10/12 01:20:26;;;;;;;3.53;2.33;;;22.30;90.20;;;;;;4976701;28;20179;-72
2023/10/12 01:22:57;;;;;;;4.68;2.47;;;22.40;90.30;;;;;;4976513;28;20183;-73
2023/10/12 01:25:29;;;;;;;4.72;2.40;;;22.30;90.20;;;;;;4981994;28;20206;-72
2023/10/12 01:27:55;;;;;;;4.05;2.08;;;22.30;90.20;;;;;;4968801;28;20212;-74
2023/10/12 01:30:22;;;;;;;4.72;2.50;;;22.30;90.30;;;;;;4987918;28;20176;-72
2023/10/12 01:32:57;;;;;;;3.42;2.05;;;22.30;90.30;;;;;;4976451;28;20270;-72
2023/10/12 01:35:48;;;;;;;3.92;2.63;;;22.30;90.70;;;;;;4975350;28;20175;-73
2023/10/12 01:38:14;;;;;;;4.40;2.38;;;22.20;90.60;;;;;;4977210;28;20191;-71
2023/10/12 01:40:55;;;;;;;5.20;1.85;;;22.20;90.30;;;;;;4997342;28;20200;-73
2023/10/12 01:43:27;;;;;;;4.38;2.22;;;22.30;90.40;;;;;;4996226;28;20172;-72
2023/10/12 01:46:07;;;;;;;4.22;2.17;;;22.30;90.40;;;;;;4991220;28;20201;-71
2023/10/12 01:48:36;;;;;;;4.43;2.05;;;22.20;90.30;;;;;;4977327;28;20165;-71
2023/10/12 01:51:10;;;;;;;5.55;2.30;;;22.20;90.40;;;;;;4989502;28;20191;-70
2023/10/12 01:53:40;;;;;;;4.22;2.60;;;22.20;90.30;;;;;;4976232;28;20219;-71
2023/10/12 01:56:09;;;;;;;4.47;2.58;;;22.20;90.30;;;;;;4975896;28;20176;-68
2023/10/12 01:58:35;;;;;;;3.65;2.40;;;22.20;90.30;;;;;;4976368;28;20207;-72
2023/10/12 02:01:08;;;;;;;5.40;2.40;;;22.10;90.20;;;;;;4990209;28;20206;-71
2023/10/12 02:03:42;;;;;;;7.70;2.47;;;22.10;90.30;;;;;;4975588;28;20215;-71
2023/10/12 02:06:22;;;;;;;4.63;2.47;;;22.10;90.20;;;;;;4975933;28;20199;-71
2023/10/12 02:08:52;;;;;;;5.03;2.53;;;22.10;90.10;;;;;;4976137;28;20247;-71
2023/10/12 02:13:55;;;;;;;3.67;2.20;;;22.10;90.20;;;;;;4990257;28;20211;-71
2023/10/12 02:16:30;;;;;;;3.45;2.50;;;22.10;90.20;;;;;;4975640;28;20190;-71
2023/10/12 02:18:56;;;;;;;3.03;2.08;;;22.00;90.00;;;;;;4975784;28;20180;-71
2023/10/12 02:21:25;;;;;;;3.70;2.20;;;21.90;89.90;;;;;;4976479;28;20279;-71
2023/10/12 02:31:38;;;;;;;3.15;2.03;;;21.60;89.90;;;;;;4961065;28;20165;-72
2023/10/12 02:34:14;;;;;;;2.65;2.00;;;21.50;90.00;;;;;;4984369;28;20211;-72
2023/10/12 02:36:40;;;;;;;4.45;2.22;;;21.40;90.20;;;;;;4976286;28;20168;-73
2023/10/12 02:39:15;;;;;;;3.30;1.88;;;21.40;90.20;;;;;;4972347;28;20271;-71
2023/10/12 02:41:48;;;;;;;2.90;1.98;;;21.30;90.20;;;;;;4960483;28;20212;-70
2023/10/12 02:44:19;;;;;;;3.80;2.10;;;21.20;90.30;;;;;;4973492;28;20173;-72
2023/10/12 02:47:12;;;;;;;4.85;2.35;;;21.10;90.40;;;;;;4979045;28;20274;-71
2023/10/12 02:49:40;;;;;;;3.15;2.13;;;21.00;90.50;;;;;;4976020;28;20172;-72
2023/10/12 02:52:14;;;;;;;5.72;2.45;;;20.90;90.60;;;;;;4982092;28;20184;-71
2023/10/12 02:54:50;;;;;;;2.92;2.00;;;20.80;91.00;;;;;;4975342;28;20199;-71
2023/10/12 02:57:22;;;;;;;4.82;2.08;;;20.80;91.00;;;;;;4972895;28;20178;-72
2023/10/12 03:00:14;;;;;;;3.25;2.38;;;20.70;91.30;;;;;;4994075;28;20222;-71
2023/10/12 03:02:42;;;;;;;4.15;2.65;;;20.60;91.50;;;;;;4972957;28;20192;-73
2023/10/12 03:05:08;;;;;;;6.05;2.33;;;20.60;91.40;;;;;;4978971;28;20203;-72
2023/10/12 03:07:38;;;;;;;6.35;2.42;;;20.50;91.60;;;;;;4977613;28;20214;-70
2023/10/12 03:10:17;;;;;;;5.38;2.45;;;20.50;91.70;;;;;;4974341;28;20185;-72
2023/10/12 03:12:44;;;;;;;7.18;2.63;;;20.50;92.00;;;;;;4974127;28;20206;-72
2023/10/12 03:15:13;;;;;;;3.55;2.35;;;20.50;92.10;;;;;;4979245;28;20172;-72
2023/10/12 03:17:45;;;;;;;4.00;2.40;;;20.50;92.20;;;;;;4979202;28;20188;-73
2023/10/12 03:20:30;;;;;;;3.22;2.30;;;20.50;92.50;;;;;;4978301;28;20185;-71
2023/10/12 03:23:12;;;;;;;3.70;2.40;;;20.50;92.50;;;;;;4979348;28;20173;-70
2023/10/12 03:25:43;;;;;;;3.88;2.35;;;20.50;92.60;;;;;;4967161;28;20263;-71
2023/10/12 03:28:30;;;;;;;3.60;2.30;;;20.50;92.80;;;;;;4978729;28;20165;-71
2023/10/12 03:31:15;;;;;;;4.60;2.53;;;20.50;92.70;;;;;;4975534;28;20180;-72
2023/10/12 03:33:46;;;;;;;4.45;2.30;;;20.50;92.70;;;;;;4975272;28;20184;-71
2023/10/12 03:38:58;;;;;;;4.45;2.63;;;20.50;93.10;;;;;;5226827;23;20236;-71
2023/10/12 03:44:02;;;;;;;4.32;2.67;;;20.50;93.20;;;;;;5037451;28;20170;-70
2023/10/12 03:46:32;;;;;;;4.78;2.67;;;20.50;93.50;;;;;;5033081;28;20218;-71
2023/10/12 03:51:46;;;;;;;3.45;2.47;;;20.50;93.60;;;;;;5024463;28;20331;-72
2023/10/12 03:54:26;;;;;;;3.60;2.30;;;20.50;93.80;;;;;;5024694;28;20166;-71
2023/10/12 03:56:56;;;;;;;5.88;3.03;;;20.50;93.70;;;;;;5036764;28;20190;-72
2023/10/12 03:59:36;;;;;;;4.55;2.45;;;20.50;93.80;;;;;;5032795;28;20175;-71
2023/10/12 04:02:02;;;;;;;10.50;6.93;;;20.50;93.90;;;;;;5021820;28;20197;-72
2023/10/12 04:04:45;;;;;;;7.35;4.40;;;20.50;94.20;;;;;;5053550;28;20220;-72
2023/10/12 04:07:16;;;;;;;8.75;3.50;;;20.50;94.50;;;;;;5036684;28;20230;-72
2023/10/12 04:09:43;;;;;;;5.70;3.15;;;20.40;94.60;;;;;;5048567;28;20208;-73
2023/10/12 04:14:46;;;;;;;4.65;2.90;;;20.30;95.30;;;;;;5037793;28;20174;-72
2023/10/12 04:25:13;;;;;;;3.38;2.67;;;20.20;95.60;;;;;;5036622;28;20193;-72
2023/10/12 04:27:50;;;;;;;4.20;2.50;;;20.20;95.80;;;;;;5035698;28;20260;-71
2023/10/12 04:30:21;;;;;;;5.05;2.40;;;20.10;96.00;;;;;;5035904;28;20193;-72
2023/10/12 04:32:53;;;;;;;6.93;2.72;;;20.10;96.10;;;;;;5035722;28;20166;-69
2023/10/12 04:38:17;;;;;;;6.25;2.53;;;20.00;96.10;;;;;;5039715;28;20319;-72
2023/10/12 04:41:22;;;;;;;4.90;2.65;;;20.00;96.30;;;;;;5037295;28;20182;-72
2023/10/12 04:43:31;;;;;;;4.57;2.97;;;20.00;96.80;;;;;;5027866;28;20217;-72
2023/10/12 04:48:46;;;;;;;6.05;2.65;;;19.90;97.20;;;;;;5029354;28;20162;-71
2023/10/12 04:51:21;;;;;;;5.65;2.85;;;19.90;97.00;;;;;;5035627;28;20202;-71
2023/10/12 04:54:15;;;;;;;5.10;3.10;;;19.80;97.10;;;;;;5054874;28;20272;-71
2023/10/12 04:56:51;;;;;;;5.28;2.80;;;19.80;97.30;;;;;;5048013;28;20189;-72
2023/10/12 04:59:26;;;;;;;5.45;2.55;;;19.80;97.30;;;;;;5035730;28;20235;-71
2023/10/12 05:05:02;;;;;;;4.70;2.47;;;19.80;97.40;;;;;;5036535;28;20197;-72
2023/10/12 05:09:49;;;;;;;4.57;2.83;;;19.70;97.70;;;;;;5030996;28;20206;-73
2023/10/12 05:12:15;;;;;;;5.75;3.15;;;19.70;98.00;;;;;;5031472;28;20178;-73
2023/10/12 05:14:40;;;;;;;5.53;3.00;;;19.70;98.60;;;;;;5026648;28;20182;-73
2023/10/12 05:17:11;;;;;;;6.35;3.08;;;19.70;98.80;;;;;;5035127;28;20289;-73
2023/10/12 05:19:37;;;;;;;5.13;3.10;;;19.70;99.10;;;;;;5032169;28;20273;-73
2023/10/12 05:22:03;;;;;;;7.75;3.00;;;19.60;99.20;;;;;;5032099;28;20225;-73
2023/10/12 05:24:29;;;;;;;5.05;3.10;;;19.60;99.60;;;;;;5031955;28;20240;-73
2023/10/12 05:26:57;;;;;;;8.50;2.60;;;19.50;99.90;;;;;;5024842;28;20206;-74
2023/10/12 05:32:06;;;;;;;5.38;2.78;;;19.50;99.90;;;;;;5035948;28;20190;-73
2023/10/12 05:37:26;;;;;;;4.97;3.10;;;19.40;99.90;;;;;;5035388;28;20189;-73
2023/10/12 05:40:00;;;;;;;4.80;3.00;;;19.40;99.90;;;;;;5051472;28;20193;-73
2023/10/12 05:42:33;;;;;;;4.85;3.70;;;19.40;99.90;;;;;;5051357;28;20182;-71
2023/10/12 05:45:19;;;;;;;5.45;3.17;;;19.40;99.90;;;;;;5034394;28;20174;-67
2023/10/12 05:47:51;;;;;;;6.57;3.22;;;19.30;99.90;;;;;;5035346;28;20205;-71
2023/10/12 05:50:16;;;;;;;3.88;2.78;;;19.30;99.90;;;;;;5051188;28;20261;-71
2023/10/12 05:52:42;;;;;;;5.05;2.95;;;19.30;99.90;;;;;;5051208;28;20210;-71
2023/10/12 05:55:20;;;;;;;3.40;2.65;;;19.30;99.90;;;;;;5035099;28;20209;-71
2023/10/12 05:57:50;;;;;;;4.75;3.15;;;19.30;99.90;;;;;;5034720;28;20323;-71
2023/10/12 06:00:34;;;;;;;3.95;2.72;;;19.30;99.90;;;;;;5034533;28;20541;-71
2023/10/12 06:03:00;;;;;;;5.45;3.30;;;19.20;99.90;;;;;;5034663;28;20256;-72
2023/10/12 06:05:29;;;;;;;5.05;3.20;;;19.20;99.90;;;;;;5050581;28;20212;-72
2023/10/12 06:08:00;;;;;;;4.47;3.03;;;19.20;99.90;;;;;;5050746;28;20189;-72
2023/10/12 06:10:27;;;;;;;5.90;3.00;;;19.20;99.90;;;;;;5051163;28;20174;-72
2023/10/12 06:13:03;;;;;;;5.45;3.22;;;19.10;99.90;;;;;;5067000;28;20173;-72
2023/10/12 06:15:29;;;;;;;4.00;2.88;;;19.10;99.90;;;;;;5054200;28;20269;-72
2023/10/12 06:17:59;;;;;;;4.18;2.90;;;19.00;99.90;;;;;;5054128;28;20177;-72
2023/10/12 06:20:40;;;;;;;6.22;3.10;;;19.00;99.90;;;;;;5054469;28;20189;-73
2023/10/12 06:23:09;;;;;;;4.53;2.90;;;19.00;99.90;;;;;;5054335;28;20280;-71
2023/10/12 06:25:43;;;;;;;5.65;2.88;;;18.90;99.90;;;;;;5052797;28;20235;-73
2023/10/12 06:28:17;;;;;;;4.55;2.50;;;18.90;99.90;;;;;;5045192;28;20205;-72
2023/10/12 06:30:50;;;;;;;5.90;2.67;;;18.80;99.90;;;;;;5050793;28;20190;-72
2023/10/12 06:33:22;;;;;;;4.47;2.70;;;18.80;99.90;;;;;;5036316;28;20224;-72
2023/10/12 06:36:11;;;;;;;3.53;2.75;;;18.70;99.90;;;;;;5038224;28;20327;-72
2023/10/12 06:38:47;;;;;;;5.63;2.83;;;18.70;99.90;;;;;;5038810;28;20194;-72
2023/10/12 06:41:58;;;;;;;6.63;2.63;;;18.70;99.90;;;;;;5037798;28;20181;-71
2023/10/12 06:44:27;;;;;;;4.13;2.70;;;18.60;99.90;;;;;;5038470;28;20267;-71
2023/10/12 06:47:23;;;;;;;7.10;2.97;;;18.60;99.90;;;;;;5054282;28;20189;-71
2023/10/12 06:49:44;;;;;;;3.67;2.70;;;18.60;99.90;;;;;;5038596;28;20202;-72
2023/10/12 06:52:16;;;;;;;6.95;3.22;;;18.60;99.90;;;;;;5054737;28;20174;-71
2023/10/12 06:54:49;;;;;;;6.45;3.35;;;18.60;99.90;;;;;;5054481;28;20216;-72
2023/10/12 07:02:30;;;;;;;5.38;2.90;;;18.60;99.90;;;;;;5038685;28;20159;-71
2023/10/12 07:05:00;;;;;;;10.10;3.60;;;18.60;99.90;;;;;;5054233;28;20177;-72
2023/10/12 07:07:36;;;;;;;4.75;2.75;;;18.50;99.90;;;;;;5054058;28;20206;-72
2023/10/12 07:12:49;;;;;;;5.03;2.95;;;18.50;99.90;;;;;;5038444;28;20158;-69
2023/10/12 07:15:23;;;;;;;6.85;3.45;;;18.50;99.90;;;;;;5054083;28;20300;-71
2023/10/12 07:17:50;;;;;;;6.05;3.30;;;18.50;99.90;;;;;;5053372;28;20197;-71
2023/10/12 07:23:05;;;;;;;7.43;3.70;;;18.40;99.90;;;;;;5018215;28;20246;-69
2023/10/12 07:25:36;;;;;;;4.93;3.03;;;18.40;99.90;;;;;;5017583;28;20210;-70
2023/10/12 07:28:02;;;;;;;5.53;3.15;;;18.30;99.90;;;;;;5017569;28;20167;-71
2023/10/12 07:30:36;;;;;;;6.82;3.20;;;18.30;99.90;;;;;;5017245;28;20221;-72
2023/10/12 07:33:07;;;;;;;4.75;3.30;;;18.30;99.90;;;;;;5018555;28;20167;-72
2023/10/12 07:35:42;;;;;;;6.35;3.17;;;18.30;99.90;;;;;;5036940;28;20201;-70
2023/10/12 07:38:14;;;;;;;6.13;3.42;;;18.30;99.90;;;;;;5036795;28;20193;-71
2023/10/12 07:40:52;;;;;;;4.78;3.45;;;18.20;99.90;;;;;;5036929;28;20173;-72
2023/10/12 07:43:19;;;;;;;5.93;3.28;;;18.20;99.90;;;;;;5036891;28;20161;-72
2023/10/12 07:45:48;;;;;;;5.55;3.40;;;18.30;99.90;;;;;;5035576;28;20504;-71
2023/10/12 07:48:39;;;;;;;4.70;3.00;;;18.30;99.90;;;;;;5036823;28;20200;-71
2023/10/12 07:51:19;;;;;;;4.43;3.28;;;18.30;99.90;;;;;;5036679;28;20198;-69
2023/10/12 07:53:57;;;;;;;4.85;3.50;;;18.30;99.90;;;;;;5036492;28;20205;-72
2023/10/12 07:56:24;;;;;;;5.15;2.97;;;18.30;99.90;;;;;;5036750;28;20158;-73
2023/10/12 07:58:58;;;;;;;5.45;3.10;;;18.30;99.90;;;;;;5053082;28;20272;-71
2023/10/12 08:03:58;;;;;;;7.88;3.40;;;18.30;99.90;;;;;;5037388;28;20243;-71
2023/10/12 08:06:31;;;;;;;8.15;5.03;;;18.30;99.90;;;;;;5062954;28;20292;-72
2023/10/12 08:09:04;;;;;;;6.85;4.00;;;18.30;99.90;;;;;;5056390;28;20164;-72
2023/10/12 08:11:31;;;;;;;7.03;4.18;;;18.30;99.90;;;;;;5036226;28;20201;-72
2023/10/12 08:14:18;;;;;;;6.80;3.78;;;18.30;99.90;;;;;;5036175;28;20178;-71
2023/10/12 08:17:00;;;;;;;6.88;3.42;;;18.30;99.90;;;;;;5036188;28;20205;-72
2023/10/12 08:19:29;;;;;;;5.13;3.47;;;18.30;99.90;;;;;;5052496;28;20213;-72
2023/10/12 08:22:03;;;;;;;7.45;5.03;;;18.40;99.90;;;;;;5052453;28;20192;-71
2023/10/12 08:24:30;;;;;;;8.40;4.60;;;18.40;99.90;;;;;;5052541;28;20188;-72
2023/10/12 08:27:00;;;;;;;7.60;3.95;;;18.40;99.90;;;;;;5052623;28;20212;-71
2023/10/12 08:32:04;;;;;;;5.60;3.67;;;18.40;99.90;;;;;;5036417;28;20169;-68
2023/10/12 08:37:26;;;;;;;5.82;3.63;;;18.40;99.90;;;;;;5036715;28;20201;-72
2023/10/12 08:39:52;;;;;;;5.78;3.22;;;18.50;99.90;;;;;;5036311;28;20300;-72
2023/10/12 08:44:58;;;;;;;4.15;3.42;;;18.50;99.90;;;;;;5036659;28;20173;-71
2023/10/12 08:47:26;;;;;;;5.22;3.25;;;18.50;99.90;;;;;;5035378;28;20189;-73
2023/10/12 08:50:04;;;;;;;7.55;3.45;;;18.60;99.90;;;;;;5035706;28;20228;-73
2023/10/12 08:52:32;;;;;;;5.78;3.40;;;18.60;99.90;;;;;;5035665;28;20213;-73
2023/10/12 08:55:03;;;;;;;6.72;3.60;;;18.60;99.90;;;;;;5035186;28;20170;-72
2023/10/12 08:57:56;;;;;;;5.70;3.67;;;18.60;99.90;;;;;;5035264;28;20173;-73
2023/10/12 09:03:08;;;;;;;4.40;3.03;;;18.70;99.90;;;;;;5036051;28;20170;-72
2023/10/12 09:05:34;;;;;;;6.68;3.97;;;18.70;99.90;;;;;;5035610;28;20243;-71
2023/10/12 09:13:19;;;;;;;5.82;3.67;;;18.80;99.90;;;;;;5016304;28;20198;-73
2023/10/12 09:15:45;;;;;;;6.22;3.65;;;18.80;99.90;;;;;;5015483;28;20266;-73
2023/10/12 09:18:21;;;;;;;6.00;3.63;;;18.80;99.90;;;;;;5025310;28;20189;-73
2023/10/12 09:23:30;;;;;;;6.18;4.03;;;18.80;99.90;;;;;;5036160;28;20150;-73
2023/10/12 09:31:48;;;;;;;4.63;3.53;;;18.80;99.90;;;;;;5035944;28;20178;-72
2023/10/12 09:36:55;;;;;;;7.43;4.07;;;18.80;99.90;;;;;;5039710;28;20181;-72
2023/10/12 09:39:27;;;;;;;6.28;3.60;;;18.90;99.90;;;;;;5054723;28;20174;-71
2023/10/12 09:42:09;;;;;;;5.05;3.20;;;18.90;99.90;;;;;;5036668;28;20181;-70
2023/10/12 09:44:39;;;;;;;6.85;3.50;;;18.90;99.90;;;;;;5050907;28;20166;-74
2023/10/12 09:47:11;;;;;;;5.78;3.45;;;18.90;99.90;;;;;;5034695;28;20221;-72
2023/10/12 09:49:44;;;;;;;5.40;3.92;;;18.90;99.90;;;;;;5014826;28;20186;-72
2023/10/12 09:52:17;;;;;;;5.47;3.67;;;19.00;99.90;;;;;;5014693;28;20225;-72
2023/10/12 09:54:53;;;;;;;5.50;4.25;;;19.00;99.90;;;;;;5021201;28;20225;-71
2023/10/12 09:57:26;;;;;;;5.78;3.95;;;19.00;99.90;;;;;;5034325;28;20170;-68
2023/10/12 10:00:01;;;;;;;6.47;3.80;;;19.10;99.90;;;;;;5034360;28;20373;-72
2023/10/12 10:02:32;;;;;;;7.15;3.80;;;19.10;99.90;;;;;;5034181;28;20212;-73
2023/10/12 10:05:11;;;;;;;7.18;4.20;;;19.20;99.90;;;;;;5034460;28;20181;-73
2023/10/12 10:07:55;;;;;;;5.82;3.67;;;19.20;99.90;;;;;;5035228;28;20240;-73
2023/10/12 10:10:32;;;;;;;8.00;3.67;;;19.20;99.90;;;;;;5038294;28;20174;-71
2023/10/12 10:13:10;;;;;;;4.60;3.70;;;19.20;99.90;;;;;;5038320;28;20179;-73
2023/10/12 10:15:55;;;;;;;6.72;3.90;;;19.20;99.90;;;;;;5038441;28;20197;-73
2023/10/12 10:18:28;;;;;;;6.47;3.70;;;19.30;99.90;;;;;;5018358;28;20269;-72
2023/10/12 10:21:04;;;;;;;5.47;3.40;;;19.30;99.90;;;;;;5034973;28;20189;-72
2023/10/12 10:23:37;;;;;;;6.57;3.70;;;19.40;99.90;;;;;;5058219;28;20184;-73
2023/10/12 10:26:19;;;;;;;7.25;3.67;;;19.40;99.90;;;;;;5038945;28;20194;-73
2023/10/12 10:28:55;;;;;;;5.72;3.67;;;19.40;99.90;;;;;;5038057;28;20205;-72
2023/10/12 10:31:52;;;;;;;5.03;3.67;;;19.50;99.90;;;;;;5037870;28;20231;-72
2023/10/12 10:34:23;;;;;;;5.18;3.50;;;19.50;99.90;;;;;;5036972;28;20212;-73
2023/10/12 10:36:52;;;;;;;5.97;4.07;;;19.50;99.90;;;;;;5037675;28;20206;-73
2023/10/12 10:41:54;;;;;;;6.80;3.83;;;19.50;99.90;;;;;;5018782;28;20177;-71
2023/10/12 10:44:26;;;;;;;7.28;3.78;;;19.60;99.90;;;;;;5036546;28;20264;-73
2023/10/12 10:47:00;;;;;;;6.10;4.00;;;19.60;99.90;;;;;;5038540;28;20193;-72
2023/10/12 10:49:32;;;;;;;6.10;3.58;;;19.70;99.90;;;;;;5037582;28;20206;-72
2023/10/12 10:54:37;;;;;;;5.85;3.63;;;19.70;99.90;;;;;;5038173;28;20169;-73
2023/10/12 10:57:16;;;;;;;6.57;3.60;;;19.80;99.90;;;;;;5054011;28;20206;-73
2023/10/12 10:59:45;;;;;;;9.70;3.97;;;19.80;99.90;;;;;;5037352;28;20178;-73
2023/10/12 11:02:11;;;;;;;5.78;4.07;;;20.00;99.90;;;;;;5037204;28;20181;-73
2023/10/12 11:07:11;;;;;;;7.18;4.38;;;20.40;99.90;;;;;;5023108;28;20347;-73
2023/10/12 11:12:23;;;;;;;5.60;3.95;;;20.80;99.90;;;;;;5034902;28;20166;-72
2023/10/12 11:14:58;;;;;;;6.35;4.10;;;21.00;99.90;;;;;;5040241;28;20261;-73
2023/10/12 11:17:26;;;;;;;5.80;3.95;;;21.20;99.90;;;;;;5037478;28;20166;-71
2023/10/12 11:19:54;;;;;;;6.32;3.60;;;21.40;99.90;;;;;;5031430;28;20258;-72
2023/10/12 11:22:20;;;;;;;6.35;3.80;;;21.60;99.90;;;;;;5037488;28;20213;-72
2023/10/12 11:24:54;;;;;;;5.82;3.90;;;21.70;99.90;;;;;;5037523;28;20178;-72
2023/10/12 11:27:39;;;;;;;7.28;3.65;;;21.90;99.90;;;;;;5027891;28;20375;-73
2023/10/12 11:30:18;;;;;;;7.00;3.78;;;22.10;99.90;;;;;;5024721;28;20335;-73
2023/10/12 11:32:58;;;;;;;4.78;3.50;;;22.30;99.90;;;;;;5036846;28;20173;-72
2023/10/12 11:35:43;;;;;;;7.00;3.95;;;22.40;99.90;;;;;;5036439;28;20201;-72
2023/10/12 11:38:23;;;;;;;6.45;4.00;;;22.60;99.90;;;;;;5033702;28;20186;-72
2023/10/12 11:40:55;;;;;;;5.22;3.80;;;22.70;99.90;;;;;;5036873;28;20239;-73
2023/10/12 11:43:44;;;;;;;6.35;3.42;;;22.70;99.90;;;;;;5032990;28;20198;-72
2023/10/12 11:46:10;;;;;;;6.53;3.67;;;22.70;99.90;;;;;;5035804;28;20194;-73
2023/10/12 11:48:38;;;;;;;5.50;3.35;;;22.70;99.90;;;;;;5036788;28;20204;-72
2023/10/12 11:51:12;;;;;;;5.20;3.33;;;22.70;99.90;;;;;;5033261;28;20189;-72
2023/10/12 11:53:39;;;;;;;5.38;3.10;;;22.70;99.90;;;;;;5018706;28;20165;-70
2023/10/12 11:56:17;;;;;;;5.90;3.10;;;22.70;99.90;;;;;;5036775;28;20225;-70
2023/10/12 11:58:50;;;;;;;6.22;3.42;;;22.60;99.90;;;;;;5033448;28;20189;-72
2023/10/12 12:01:18;;;;;;;6.28;3.55;;;22.60;99.90;;;;;;5035335;28;20269;-72
2023/10/12 12:03:45;;;;;;;5.82;3.20;;;22.50;99.90;;;;;;5030531;28;20200;-72
2023/10/12 12:06:18;;;;;;;4.47;2.97;;;22.30;99.90;;;;;;5036761;28;20260;-71
2023/10/12 12:08:49;;;;;;;4.97;2.67;;;22.30;99.90;;;;;;5036836;28;20190;-73
2023/10/12 12:11:19;;;;;;;4.38;2.63;;;22.20;99.90;;;;;;5036174;28;20170;-72
2023/10/12 12:13:48;;;;;;;6.13;3.03;;;22.20;99.90;;;;;;5035746;28;20171;-71
2023/10/12 12:16:20;;;;;;;5.25;3.13;;;22.10;99.90;;;;;;5033945;28;20289;-72
2023/10/12 12:18:52;;;;;;;4.85;2.80;;;22.10;99.90;;;;;;5036106;28;20253;-72
2023/10/12 12:21:29;;;;;;;5.63;2.55;;;22.20;99.90;;;;;;5034354;28;20224;-71
2023/10/12 12:26:49;;;;;;;5.13;2.83;;;22.20;99.90;;;;;;5016916;28;20210;-72
2023/10/12 12:29:21;;;;;;;4.40;2.65;;;22.20;99.90;;;;;;5026313;28;20197;-71
2023/10/12 12:31:48;;;;;;;4.60;2.58;;;22.20;99.90;;;;;;5035008;28;20170;-70
2023/10/12 12:34:33;;;;;;;6.10;2.67;;;22.20;99.90;;;;;;5036028;28;20166;-70
2023/10/12 12:37:05;;;;;;;3.88;2.60;;;22.10;99.90;;;;;;5035454;28;20202;-71
2023/10/12 12:39:34;;;;;;;4.80;2.80;;;22.00;99.90;;;;;;5020007;28;20225;-69
2023/10/12 12:42:09;;;;;;;7.30;2.90;;;22.00;99.90;;;;;;5023871;28;20236;-72
2023/10/12 12:44:37;;;;;;;3.30;2.20;;;21.90;99.90;;;;;;5035672;28;20169;-72
2023/10/12 12:47:06;;;;;;;6.47;2.72;;;21.80;99.90;;;;;;5035437;28;20194;-71
2023/10/12 12:49:34;;;;;;;5.57;2.83;;;21.80;99.90;;;;;;5035762;28;20237;-72
2023/10/12 12:52:00;;;;;;;4.32;3.05;;;21.70;99.90;;;;;;5035737;28;20170;-72
2023/10/12 12:54:26;;;;;;;5.75;2.90;;;21.60;99.90;;;;;;5035148;28;20213;-71
2023/10/12 12:56:54;;;;;;;5.80;3.28;;;21.50;99.90;;;;;;5035403;28;20206;-72
2023/10/12 12:59:24;;;;;;;4.13;2.67;;;21.50;99.90;;;;;;5034942;28;20178;-72
2023/10/12 13:01:50;;;;;;;6.28;2.92;;;21.40;99.90;;;;;;5035006;28;20342;-70
2023/10/12 13:04:21;;;;;;;5.53;2.90;;;21.30;99.90;;;;;;5034657;28;20206;-70
2023/10/12 13:06:48;;;;;;;7.32;3.10;;;21.20;99.90;;;;;;5034838;28;20202;-70
2023/10/12 13:09:29;;;;;;;6.43;3.15;;;21.20;99.90;;;;;;5034471;28;20180;-72
2023/10/12 13:11:57;;;;;;;6.35;2.95;;;21.00;99.90;;;;;;5034790;28;20213;-70
2023/10/12 13:14:28;;;;;;;4.97;2.80;;;20.90;99.90;;;;;;5019981;28;20169;-73
2023/10/12 13:16:54;;;;;;;4.35;2.67;;;20.70;99.90;;;;;;5034549;28;20197;-70
2023/10/12 13:19:24;;;;;;;6.32;3.30;;;20.50;99.90;;;;;;5035343;28;20180;-72
2023/10/12 13:21:49;;;;;;;7.90;3.60;;;20.40;99.90;;;;;;5034820;28;20174;-71
2023/10/12 13:24:15;;;;;;;6.00;3.55;;;20.20;99.90;;;;;;5034973;28;20202;-71
2023/10/12 13:26:43;;;;;;;8.15;3.58;;;20.00;99.90;;;;;;5033324;28;20224;-72
2023/10/12 13:29:13;;;;;;;6.63;3.40;;;19.80;99.90;;;;;;5015249;28;20171;-72
2023/10/12 13:31:41;;;;;;;7.72;3.30;;;19.70;99.90;;;;;;5015829;28;20191;-72
2023/10/12 13:34:07;;;;;;;6.35;3.60;;;19.50;99.90;;;;;;5036411;28;20162;-73
2023/10/12 13:36:33;;;;;;;8.18;2.97;;;19.30;99.90;;;;;;5035006;28;20170;-73
2023/10/12 13:39:03;;;;;;;5.47;3.00;;;19.20;99.90;;;;;;5034811;28;20201;-70
2023/10/12 13:41:32;;;;;;;5.30;3.05;;;19.00;99.90;;;;;;5031048;28;20183;-73
2023/10/12 13:44:05;;;;;;;4.93;3.00;;;18.90;99.90;;;;;;5027931;28;20261;-71
2023/10/12 13:46:31;;;;;;;5.00;3.10;;;18.80;99.90;;;;;;5034806;28;20200;-69
2023/10/12 13:48:57;;;;;;;9.25;3.40;;;18.70;99.90;;;;;;5034513;28;20244;-72
2023/10/12 13:51:31;;;;;;;5.53;3.03;;;18.70;99.90;;;;;;5034421;28;20251;-71
2023/10/12 13:53:57;;;;;;;5.13;2.90;;;18.60;99.90;;;;;;5035777;28;20245;-72
2023/10/12 13:56:30;;;;;;;4.78;2.78;;;18.60;99.90;;;;;;5031184;28;20261;-71
2023/10/12 13:58:58;;;;;;;5.65;2.95;;;18.50;99.90;;;;;;5021201;28;20212;-69
2023/10/12 14:01:26;;;;;;;3.97;2.80;;;18.60;99.90;;;;;;5033495;28;20217;-71
2023/10/12 14:03:55;;;;;;;4.70;2.92;;;18.60;99.90;;;;;;5034297;28;20182;-71
2023/10/12 14:06:23;;;;;;;5.70;3.15;;;18.60;99.90;;;;;;5033384;28;20205;-72
2023/10/12 14:08:49;;;;;;;5.53;3.22;;;18.60;99.90;;;;;;5034291;28;20178;-71
2023/10/12 14:11:21;;;;;;;6.03;3.10;;;18.60;99.90;;;;;;5033603;28;20166;-72
2023/10/12 14:13:50;;;;;;;5.38;3.10;;;18.60;99.90;;;;;;5017912;28;20484;-72
2023/10/12 14:16:16;;;;;;;4.55;3.10;;;18.70;99.90;;;;;;5028885;28;20186;-71
2023/10/12 14:18:44;;;;;;;6.72;3.15;;;18.70;99.90;;;;;;5034212;28;20251;-72
2023/10/12 14:21:10;;;;;;;4.65;3.03;;;18.70;99.90;;;;;;5034903;28;20332;-71
2023/10/12 14:23:40;;;;;;;4.45;2.97;;;18.80;99.90;;;;;;5050882;28;20196;-70
2023/10/12 14:26:06;;;;;;;6.28;3.30;;;18.80;99.90;;;;;;5050794;28;20262;-71
2023/10/12 14:28:34;;;;;;;11.77;8.90;;;18.80;99.90;;;;;;5034304;28;20202;-72
2023/10/12 14:31:05;;;;;;;12.07;9.25;;;18.90;99.90;;;;;;5033503;28;20177;-72
2023/10/12 14:33:35;;;;;;;13.25;7.10;;;18.90;99.90;;;;;;5033075;28;20197;-71
2023/10/12 14:36:00;;;;;;;10.38;7.05;;;19.00;99.90;;;;;;5036020;28;20179;-70
2023/10/12 14:38:27;;;;;;;10.13;6.60;;;19.00;99.90;;;;;;5013679;28;20213;-72
2023/10/12 14:40:56;;;;;;;6.28;5.00;;;19.10;99.90;;;;;;5023217;28;20181;-71
2023/10/12 14:43:23;;;;;;;8.85;5.40;;;19.20;99.90;;;;;;5030867;28;20198;-70
2023/10/12 14:45:55;;;;;;;6.78;4.05;;;19.20;99.90;;;;;;5033821;28;20213;-72
2023/10/12 14:48:29;;;;;;;5.00;3.60;;;19.20;99.90;;;;;;5032698;28;20270;-72
2023/10/12 14:51:09;;;;;;;4.93;3.60;;;19.20;99.90;;;;;;5031969;28;20169;-72